Ocean Beaut — WDD7485 — position and weather

sailwx.info

Track history (hours):
 
Tides and Currents Weather Stations Pressure Air Temp Water Temp Dewpoint Dewpoint Depression Visibility Wind Speed Wind Dir Waves Ship Positions

Ocean Beaut

Owner: John Moreland Fishing Inc., Astoria, OR. More information available from US FCC via Universal Licensing System.

Last reported at 2015-May-04 04:33 UTC. Time now 2015-May-04 05:00 UTC.
Position N 46°12' W 123°48'.

Length 20 m.

Type: Fishing. MMSI: 367187080.

Date/timePositionNaut miles runAvg speedWind from/ knotsBaromVisibWave heightAir tempDewpointWater temp
2015-May-04 04:33N 46°12' W 123°48'0 0.0
2015-May-04 03:33N 46°12' W 123°48'0 0.0
2015-May-04 02:33N 46°12' W 123°48'0 0.0
2015-May-04 01:33N 46°12' W 123°48'0 0.0
2015-May-04 00:33N 46°12' W 123°48'0 0.0
2015-May-03 23:33N 46°12' W 123°48'0 0.0
2015-May-03 22:33N 46°12' W 123°48'0 0.0
2015-May-03 21:33N 46°12' W 123°48'0 0.0
2015-May-03 20:33N 46°12' W 123°48'0 0.0
2015-May-03 19:33N 46°12' W 123°48'0 0.0
2015-May-03 18:33N 46°12' W 123°48'2 2.4
2015-May-03 17:33N 46°11' W 123°51'0 0.0
2015-May-03 16:33N 46°11' W 123°51'0 0.0
2015-May-03 15:33N 46°11' W 123°51'0 0.0
2015-May-03 14:33N 46°11' W 123°51'0 0.0
2015-May-03 13:30N 46°11' W 123°51'0 0.0
2015-May-03 12:33N 46°11' W 123°51'2 2.3
2015-May-03 11:31N 46°12' W 123°48'0 0.0
2015-May-03 10:31N 46°12' W 123°48'0 0.0
2015-May-03 09:31N 46°12' W 123°48'0 0.0
2015-May-03 08:31N 46°12' W 123°48'0 0.0
2015-May-03 07:31N 46°12' W 123°48'0 0.0
2015-May-03 06:31N 46°12' W 123°48'0 0.0
2015-May-03 05:31N 46°12' W 123°48'0 0.0
2015-May-03 04:32N 46°12' W 123°48'0 0.0
2015-May-03 03:31N 46°12' W 123°48'0 0.0
2015-May-03 02:31N 46°12' W 123°48'0 0.0
2015-May-03 01:23N 46°12' W 123°48'0 0.0
2015-May-03 00:31N 46°12' W 123°48'0 0.0
2015-May-02 23:31N 46°12' W 123°48'0 0.0
2015-May-02 22:31N 46°12' W 123°48'0 0.0
2015-May-02 21:31N 46°12' W 123°48'0 0.0
2015-May-02 20:31N 46°12' W 123°48'0 0.2
2015-May-02 19:33N 46°12' W 123°48'8 8.4
2015-May-02 18:34N 46°15' W 123°60'8 8.3
2015-May-02 17:33N 46°17' W 124°12'8 7.8
2015-May-02 16:33N 46°21' W 124°21'1 1.4
2015-May-02 15:33N 46°21' W 124°23'2 1.9
2015-May-02 14:33N 46°20' W 124°21'2 2.1
2015-May-02 13:33N 46°18' W 124°20'5 4.5
2015-May-02 12:32N 46°19' W 124°27'1 1.3
2015-May-02 11:34N 46°20' W 124°26'2 2.5
2015-May-02 10:33N 46°22' W 124°29'2 1.6
2015-May-02 09:32N 46°23' W 124°30'1 1.3
2015-May-02 08:33N 46°24' W 124°31'1 0.9
2015-May-02 07:33N 46°23' W 124°30'2 1.8
2015-May-02 06:33N 46°22' W 124°31'2 1.8
2015-May-02 05:33N 46°20' W 124°31'1 0.7
2015-May-02 04:33N 46°19' W 124°30'7 7.5
2015-May-02 03:33N 46°27' W 124°29'6 6.4
2015-May-02 02:33N 46°33' W 124°33'7 7.2
2015-May-02 01:33N 46°37' W 124°41'  
2015-Apr-29 21:26N 46°34' W 124°39'1 1.6
2015-Apr-29 20:33N 46°33' W 124°41'2 2.1
2015-Apr-29 19:31N 46°31' W 124°40'3 2.6
2015-Apr-29 18:31N 46°29' W 124°40'9 6.9
2015-Apr-29 17:13N 46°24' W 124°29'7 7.9
2015-Apr-29 16:23N 46°21' W 124°20'7 8.3
2015-Apr-29 15:33N 46°16' W 124°13'8 7.6
2015-Apr-29 14:34N 46°15' W 124°02'8 8.3
2015-Apr-29 13:33N 46°12' W 123°51'2 2.0
2015-Apr-29 12:32N 46°12' W 123°48'0 0.0
2015-Apr-29 11:32N 46°12' W 123°48'0 0.0
2015-Apr-29 10:32N 46°12' W 123°48'0 0.0
2015-Apr-29 09:32N 46°12' W 123°48'0 0.0
2015-Apr-29 08:32N 46°12' W 123°48'0 0.0
2015-Apr-29 07:32N 46°12' W 123°48'0 0.0
2015-Apr-29 06:32N 46°12' W 123°48'0 0.0
2015-Apr-29 05:32N 46°12' W 123°48'0 0.0
2015-Apr-29 04:32N 46°12' W 123°48'0 0.0
2015-Apr-29 03:26N 46°12' W 123°48'0 0.0
2015-Apr-29 02:32N 46°12' W 123°48'0 0.0
2015-Apr-29 01:32N 46°12' W 123°48'0 0.0
2015-Apr-29 00:32N 46°12' W 123°48'0 0.0
2015-Apr-28 23:32N 46°12' W 123°48'0 0.0
2015-Apr-28 22:32N 46°12' W 123°48'0 0.0
2015-Apr-28 21:32N 46°12' W 123°48'0 0.0
2015-Apr-27 18:05N 46°12' W 123°48'0 0.0
2015-Apr-27 17:32N 46°12' W 123°48'0 0.0
2015-Apr-27 16:32N 46°12' W 123°48'0 0.0
2015-Apr-27 15:29N 46°12' W 123°48'0 0.0
2015-Apr-27 14:32N 46°12' W 123°48'0 0.0
2015-Apr-27 13:32N 46°12' W 123°48'0 0.0
2015-Apr-27 12:32N 46°12' W 123°48'0 0.0
2015-Apr-27 11:32N 46°12' W 123°48'0 0.0
2015-Apr-27 10:32N 46°12' W 123°48'0 0.0
2015-Apr-27 09:23N 46°12' W 123°48'0 0.0
2015-Apr-27 08:29N 46°12' W 123°48'0 0.0
2015-Apr-27 07:32N 46°12' W 123°48'0 0.0
2015-Apr-27 06:32N 46°12' W 123°48'0 0.0
2015-Apr-27 05:32N 46°12' W 123°48'0 0.0
2015-Apr-27 04:32N 46°12' W 123°48'0 0.0
2015-Apr-27 03:32N 46°12' W 123°48'0 0.0
2015-Apr-27 02:32N 46°12' W 123°48'0 0.0
2015-Apr-27 01:32N 46°12' W 123°48'0 0.0
2015-Apr-27 00:32N 46°12' W 123°48'0 0.0
2015-Apr-26 23:32N 46°12' W 123°48'0 0.0
2015-Apr-26 22:32N 46°12' W 123°48'0 0.0
2015-Apr-26 21:32N 46°12' W 123°48'0 0.0
2015-Apr-26 20:32N 46°12' W 123°48'0 0.0
2015-Apr-26 19:32N 46°12' W 123°48'0 0.0
2015-Apr-26 18:32N 46°12' W 123°48'0 0.0
2015-Apr-26 17:26N 46°12' W 123°48'0 0.0
2015-Apr-26 16:32N 46°12' W 123°48'0 0.0
2015-Apr-26 15:32N 46°12' W 123°48'0 0.0
2015-Apr-26 14:32N 46°12' W 123°48'0 0.0
2015-Apr-26 13:32N 46°12' W 123°48'0 0.0
2015-Apr-26 12:32N 46°12' W 123°48'0 0.0
2015-Apr-26 11:32N 46°12' W 123°48'0 0.0
2015-Apr-26 10:32N 46°12' W 123°48'0 0.0
2015-Apr-26 09:32N 46°12' W 123°48'0 0.0
2015-Apr-26 08:32N 46°12' W 123°48'0 0.0
2015-Apr-26 07:29N 46°12' W 123°48'0 0.0
2015-Apr-26 06:29N 46°12' W 123°48'0 0.0
2015-Apr-26 05:32N 46°12' W 123°48'0 0.0
2015-Apr-26 04:32N 46°12' W 123°48'0 0.0
2015-Apr-26 03:29N 46°12' W 123°48'0 0.0
2015-Apr-26 02:32N 46°12' W 123°48'0 0.0
2015-Apr-26 01:32N 46°12' W 123°48'0 0.0
2015-Apr-26 00:32N 46°12' W 123°48'0 0.0
2015-Apr-25 23:32N 46°12' W 123°48'0 0.0
2015-Apr-25 22:32N 46°12' W 123°48'0 0.0
2015-Apr-25 21:32N 46°12' W 123°48'0 0.0
2015-Apr-25 20:29N 46°12' W 123°48'0 0.0
2015-Apr-25 19:32N 46°12' W 123°48'0 0.0
2015-Apr-25 18:32N 46°12' W 123°48'0 0.0
2015-Apr-25 17:32N 46°12' W 123°48'0 0.0
2015-Apr-25 16:32N 46°12' W 123°48'0 0.0
2015-Apr-25 15:32N 46°12' W 123°48'0 0.0
2015-Apr-25 14:30N 46°12' W 123°48'0 0.0
2015-Apr-25 13:32N 46°12' W 123°48'0 0.0
2015-Apr-25 12:33N 46°12' W 123°48'0 0.0
2015-Apr-25 11:33N 46°12' W 123°48'0 0.0
2015-Apr-25 10:33N 46°12' W 123°48'0 0.0
2015-Apr-25 09:30N 46°12' W 123°48'0 0.0
2015-Apr-25 08:30N 46°12' W 123°48'0 0.0
2015-Apr-25 07:27N 46°12' W 123°48'0 0.0
2015-Apr-25 06:33N 46°12' W 123°48'0 0.0
2015-Apr-25 05:33N 46°12' W 123°48'0 0.0
2015-Apr-25 04:24N 46°12' W 123°48'0 0.0
2015-Apr-25 03:33N 46°12' W 123°48'0 0.0
2015-Apr-25 02:33N 46°12' W 123°48'0 0.0
2015-Apr-25 01:33N 46°12' W 123°48'0 0.0
2015-Apr-25 00:27N 46°12' W 123°48'0 0.0
2015-Apr-24 23:33N 46°12' W 123°48'0 0.0
2015-Apr-24 22:33N 46°12' W 123°48'0 0.0
2015-Apr-24 21:33N 46°12' W 123°48'0 0.0
2015-Apr-24 20:33N 46°12' W 123°48'0 0.0
2015-Apr-24 19:33N 46°12' W 123°48'0 0.0
2015-Apr-24 18:33N 46°12' W 123°48'0 0.0
2015-Apr-24 17:30N 46°12' W 123°48'0 0.0
2015-Apr-24 16:33N 46°12' W 123°48'0 0.0
2015-Apr-24 15:33N 46°12' W 123°48'0 0.0
2015-Apr-24 14:33N 46°12' W 123°48'0 0.0
2015-Apr-24 13:33N 46°12' W 123°48'0 0.0
2015-Apr-24 12:30N 46°12' W 123°48'0 0.0
2015-Apr-24 11:33N 46°12' W 123°48'0 0.0
2015-Apr-24 10:33N 46°12' W 123°48'0 0.0
2015-Apr-24 09:33N 46°12' W 123°48'0 0.0
2015-Apr-24 08:33N 46°12' W 123°48'0 0.0
2015-Apr-24 07:27N 46°12' W 123°48'0 0.0
2015-Apr-24 06:33N 46°12' W 123°48'0 0.0
2015-Apr-24 05:33N 46°12' W 123°48'  
Track history (hours):
 
Tides and Currents Weather Stations Pressure Air Temp Water Temp Dewpoint Dewpoint Depression Visibility Wind Speed Wind Dir Waves Ship Positions

Ocean Beaut

Owner: John Moreland Fishing Inc., Astoria, OR. More information available from US FCC via Universal Licensing System.

Last reported at 2015-May-04 04:33 UTC. Time now 2015-May-04 05:00 UTC.
Position N 46°12' W 123°48'.

Length 20 m.

Type: Fishing. MMSI: 367187080.

Date/timePositionNaut miles runAvg speedWind from/ knotsBaromVisibWave heightAir tempDewpointWater temp
2015-May-04 04:33N 46°12' W 123°48'0 0.0
2015-May-04 03:33N 46°12' W 123°48'0 0.0
2015-May-04 02:33N 46°12' W 123°48'0 0.0
2015-May-04 01:33N 46°12' W 123°48'0 0.0
2015-May-04 00:33N 46°12' W 123°48'0 0.0
2015-May-03 23:33N 46°12' W 123°48'0 0.0
2015-May-03 22:33N 46°12' W 123°48'0 0.0
2015-May-03 21:33N 46°12' W 123°48'0 0.0
2015-May-03 20:33N 46°12' W 123°48'0 0.0
2015-May-03 19:33N 46°12' W 123°48'0 0.0
2015-May-03 18:33N 46°12' W 123°48'2 2.4
2015-May-03 17:33N 46°11' W 123°51'0 0.0
2015-May-03 16:33N 46°11' W 123°51'0 0.0
2015-May-03 15:33N 46°11' W 123°51'0 0.0
2015-May-03 14:33N 46°11' W 123°51'0 0.0
2015-May-03 13:30N 46°11' W 123°51'0 0.0
2015-May-03 12:33N 46°11' W 123°51'2 2.3
2015-May-03 11:31N 46°12' W 123°48'0 0.0
2015-May-03 10:31N 46°12' W 123°48'0 0.0
2015-May-03 09:31N 46°12' W 123°48'0 0.0
2015-May-03 08:31N 46°12' W 123°48'0 0.0
2015-May-03 07:31N 46°12' W 123°48'0 0.0
2015-May-03 06:31N 46°12' W 123°48'0 0.0
2015-May-03 05:31N 46°12' W 123°48'0 0.0
2015-May-03 04:32N 46°12' W 123°48'0 0.0
2015-May-03 03:31N 46°12' W 123°48'0 0.0
2015-May-03 02:31N 46°12' W 123°48'0 0.0
2015-May-03 01:23N 46°12' W 123°48'0 0.0
2015-May-03 00:31N 46°12' W 123°48'0 0.0
2015-May-02 23:31N 46°12' W 123°48'0 0.0
2015-May-02 22:31N 46°12' W 123°48'0 0.0
2015-May-02 21:31N 46°12' W 123°48'0 0.0
2015-May-02 20:31N 46°12' W 123°48'0 0.2
2015-May-02 19:33N 46°12' W 123°48'8 8.4
2015-May-02 18:34N 46°15' W 123°60'8 8.3
2015-May-02 17:33N 46°17' W 124°12'8 7.8
2015-May-02 16:33N 46°21' W 124°21'1 1.4
2015-May-02 15:33N 46°21' W 124°23'2 1.9
2015-May-02 14:33N 46°20' W 124°21'2 2.1
2015-May-02 13:33N 46°18' W 124°20'5 4.5
2015-May-02 12:32N 46°19' W 124°27'1 1.3
2015-May-02 11:34N 46°20' W 124°26'2 2.5
2015-May-02 10:33N 46°22' W 124°29'2 1.6
2015-May-02 09:32N 46°23' W 124°30'1 1.3
2015-May-02 08:33N 46°24' W 124°31'1 0.9
2015-May-02 07:33N 46°23' W 124°30'2 1.8
2015-May-02 06:33N 46°22' W 124°31'2 1.8
2015-May-02 05:33N 46°20' W 124°31'1 0.7
2015-May-02 04:33N 46°19' W 124°30'7 7.5
2015-May-02 03:33N 46°27' W 124°29'6 6.4
2015-May-02 02:33N 46°33' W 124°33'7 7.2
2015-May-02 01:33N 46°37' W 124°41'  
2015-Apr-29 21:26N 46°34' W 124°39'1 1.6
2015-Apr-29 20:33N 46°33' W 124°41'2 2.1
2015-Apr-29 19:31N 46°31' W 124°40'3 2.6
2015-Apr-29 18:31N 46°29' W 124°40'9 6.9
2015-Apr-29 17:13N 46°24' W 124°29'7 7.9
2015-Apr-29 16:23N 46°21' W 124°20'7 8.3
2015-Apr-29 15:33N 46°16' W 124°13'8 7.6
2015-Apr-29 14:34N 46°15' W 124°02'8 8.3
2015-Apr-29 13:33N 46°12' W 123°51'2 2.0
2015-Apr-29 12:32N 46°12' W 123°48'0 0.0
2015-Apr-29 11:32N 46°12' W 123°48'0 0.0
2015-Apr-29 10:32N 46°12' W 123°48'0 0.0
2015-Apr-29 09:32N 46°12' W 123°48'0 0.0
2015-Apr-29 08:32N 46°12' W 123°48'0 0.0
2015-Apr-29 07:32N 46°12' W 123°48'0 0.0
2015-Apr-29 06:32N 46°12' W 123°48'0 0.0
2015-Apr-29 05:32N 46°12' W 123°48'0 0.0
2015-Apr-29 04:32N 46°12' W 123°48'0 0.0
2015-Apr-29 03:26N 46°12' W 123°48'0 0.0
2015-Apr-29 02:32N 46°12' W 123°48'0 0.0
2015-Apr-29 01:32N 46°12' W 123°48'0 0.0
2015-Apr-29 00:32N 46°12' W 123°48'0 0.0
2015-Apr-28 23:32N 46°12' W 123°48'0 0.0
2015-Apr-28 22:32N 46°12' W 123°48'0 0.0
2015-Apr-28 21:32N 46°12' W 123°48'0 0.0
2015-Apr-27 18:05N 46°12' W 123°48'0 0.0
2015-Apr-27 17:32N 46°12' W 123°48'0 0.0
2015-Apr-27 16:32N 46°12' W 123°48'0 0.0
2015-Apr-27 15:29N 46°12' W 123°48'0 0.0
2015-Apr-27 14:32N 46°12' W 123°48'0 0.0
2015-Apr-27 13:32N 46°12' W 123°48'0 0.0
2015-Apr-27 12:32N 46°12' W 123°48'0 0.0
2015-Apr-27 11:32N 46°12' W 123°48'0 0.0
2015-Apr-27 10:32N 46°12' W 123°48'0 0.0
2015-Apr-27 09:23N 46°12' W 123°48'0 0.0
2015-Apr-27 08:29N 46°12' W 123°48'0 0.0
2015-Apr-27 07:32N 46°12' W 123°48'0 0.0
2015-Apr-27 06:32N 46°12' W 123°48'0 0.0
2015-Apr-27 05:32N 46°12' W 123°48'0 0.0
2015-Apr-27 04:32N 46°12' W 123°48'0 0.0
2015-Apr-27 03:32N 46°12' W 123°48'0 0.0
2015-Apr-27 02:32N 46°12' W 123°48'0 0.0
2015-Apr-27 01:32N 46°12' W 123°48'0 0.0
2015-Apr-27 00:32N 46°12' W 123°48'0 0.0
2015-Apr-26 23:32N 46°12' W 123°48'0 0.0
2015-Apr-26 22:32N 46°12' W 123°48'0 0.0
2015-Apr-26 21:32N 46°12' W 123°48'0 0.0
2015-Apr-26 20:32N 46°12' W 123°48'0 0.0
2015-Apr-26 19:32N 46°12' W 123°48'0 0.0
2015-Apr-26 18:32N 46°12' W 123°48'0 0.0
2015-Apr-26 17:26N 46°12' W 123°48'0 0.0
2015-Apr-26 16:32N 46°12' W 123°48'0 0.0
2015-Apr-26 15:32N 46°12' W 123°48'0 0.0
2015-Apr-26 14:32N 46°12' W 123°48'0 0.0
2015-Apr-26 13:32N 46°12' W 123°48'0 0.0
2015-Apr-26 12:32N 46°12' W 123°48'0 0.0
2015-Apr-26 11:32N 46°12' W 123°48'0 0.0
2015-Apr-26 10:32N 46°12' W 123°48'0 0.0
2015-Apr-26 09:32N 46°12' W 123°48'0 0.0
2015-Apr-26 08:32N 46°12' W 123°48'0 0.0
2015-Apr-26 07:29N 46°12' W 123°48'0 0.0
2015-Apr-26 06:29N 46°12' W 123°48'0 0.0
2015-Apr-26 05:32N 46°12' W 123°48'0 0.0
2015-Apr-26 04:32N 46°12' W 123°48'0 0.0
2015-Apr-26 03:29N 46°12' W 123°48'0 0.0
2015-Apr-26 02:32N 46°12' W 123°48'0 0.0
2015-Apr-26 01:32N 46°12' W 123°48'0 0.0
2015-Apr-26 00:32N 46°12' W 123°48'0 0.0
2015-Apr-25 23:32N 46°12' W 123°48'0 0.0
2015-Apr-25 22:32N 46°12' W 123°48'0 0.0
2015-Apr-25 21:32N 46°12' W 123°48'0 0.0
2015-Apr-25 20:29N 46°12' W 123°48'0 0.0
2015-Apr-25 19:32N 46°12' W 123°48'0 0.0
2015-Apr-25 18:32N 46°12' W 123°48'0 0.0
2015-Apr-25 17:32N 46°12' W 123°48'0 0.0
2015-Apr-25 16:32N 46°12' W 123°48'0 0.0
2015-Apr-25 15:32N 46°12' W 123°48'0 0.0
2015-Apr-25 14:30N 46°12' W 123°48'0 0.0
2015-Apr-25 13:32N 46°12' W 123°48'0 0.0
2015-Apr-25 12:33N 46°12' W 123°48'0 0.0
2015-Apr-25 11:33N 46°12' W 123°48'0 0.0
2015-Apr-25 10:33N 46°12' W 123°48'0 0.0
2015-Apr-25 09:30N 46°12' W 123°48'0 0.0
2015-Apr-25 08:30N 46°12' W 123°48'0 0.0
2015-Apr-25 07:27N 46°12' W 123°48'0 0.0
2015-Apr-25 06:33N 46°12' W 123°48'0 0.0
2015-Apr-25 05:33N 46°12' W 123°48'0 0.0
2015-Apr-25 04:24N 46°12' W 123°48'0 0.0
2015-Apr-25 03:33N 46°12' W 123°48'0 0.0
2015-Apr-25 02:33N 46°12' W 123°48'0 0.0
2015-Apr-25 01:33N 46°12' W 123°48'0 0.0
2015-Apr-25 00:27N 46°12' W 123°48'0 0.0
2015-Apr-24 23:33N 46°12' W 123°48'0 0.0
2015-Apr-24 22:33N 46°12' W 123°48'0 0.0
2015-Apr-24 21:33N 46°12' W 123°48'0 0.0
2015-Apr-24 20:33N 46°12' W 123°48'0 0.0
2015-Apr-24 19:33N 46°12' W 123°48'0 0.0
2015-Apr-24 18:33N 46°12' W 123°48'0 0.0
2015-Apr-24 17:30N 46°12' W 123°48'0 0.0
2015-Apr-24 16:33N 46°12' W 123°48'0 0.0
2015-Apr-24 15:33N 46°12' W 123°48'0 0.0
2015-Apr-24 14:33N 46°12' W 123°48'0 0.0
2015-Apr-24 13:33N 46°12' W 123°48'0 0.0
2015-Apr-24 12:30N 46°12' W 123°48'0 0.0
2015-Apr-24 11:33N 46°12' W 123°48'0 0.0
2015-Apr-24 10:33N 46°12' W 123°48'0 0.0
2015-Apr-24 09:33N 46°12' W 123°48'0 0.0
2015-Apr-24 08:33N 46°12' W 123°48'0 0.0
2015-Apr-24 07:27N 46°12' W 123°48'0 0.0
2015-Apr-24 06:33N 46°12' W 123°48'0 0.0
2015-Apr-24 05:33N 46°12' W 123°48'  

Dump ship's entire track history